03:02
Airports
Links
Donate
Help keep this website running!
PayPal
Bitcoin
METAR
RJTY 200256Z AUTO 04004KT 10SM BKN023 OVC030 07/M02 A3006 RMK AO2 SLP188 T00661018 58020 FZRANO $
Current Weather Conditions at RJTY
MVFR 02:56:00 20-01-18
Automated station, no observer
Altimeter:30.06 hg
Temp:6.6°c 43°f
Dew point:-1.8°c 30°f
Wind:4 knots, 4.6 mph, 2 m/s, from 40°
Visibility:10.0 statute miles
3000(OVC) Overcast
2300(BKN) Broken
Past METAR reports
MVFR 01:56:00 20-01-18
Automated station, no observer
Altimeter:30.10 hg
Temp:5.5°c 41°f
Dew point:-3.6°c 27°f
Wind:4 knots, 4.6 mph, 2 m/s, from 20°
Visibility:10.0 statute miles
2300(OVC) Overcast
RJTY 200156Z AUTO 02004KT 10SM OVC023 06/M04 A3010 RMK AO2 SLP202 T00551036 FZRANO $
MVFR 00:56:00 20-01-18
Automated station, no observer
Altimeter:30.13 hg
Temp:5.1°c 41°f
Dew point:-4.0°c 25°f
Wind:5 knots, 5.8 mph, 3 m/s, from 10°
Visibility:10.0 statute miles
2600(OVC) Overcast
RJTY 200056Z AUTO 01005KT 10SM OVC026 05/M04 A3013 RMK AO2 SLP212 T00511040 FZRANO $
MVFR 23:56:00 19-01-18
Automated station, no observer
Altimeter:30.12 hg
Temp:4.7°c 39°f
Dew point:-4.1°c 25°f
Wind:5 knots, 5.8 mph, 3 m/s, from 20°
Visibility:10.0 statute miles
2700(OVC) Overcast
RJTY 192356Z AUTO 02005KT 10SM OVC027 05/M04 A3012 RMK AO2 SLP209 T00471041 10050 20037 50008 FZRANO $
MVFR 22:56:00 19-01-18
Automated station, no observer
Altimeter:30.13 hg
Temp:4.1°c 39°f
Dew point:-3.9°c 27°f
Wind:5 knots, 5.8 mph, 3 m/s, from 10°
Visibility:10.0 statute miles
2800(OVC) Overcast
RJTY 192256Z AUTO 01005KT 10SM OVC028 04/M04 A3013 RMK AO2 SLP212 T00411039 FZRANO $
MVFR 21:56:00 19-01-18
Automated station, no observer
Altimeter:30.13 hg
Temp:3.9°c 37°f
Dew point:-4.1°c 25°f
Wind:6 knots, 6.9 mph, 3 m/s, from 20°
Visibility:10.0 statute miles
2900(OVC) Overcast
RJTY 192156Z AUTO 02006KT 10SM OVC029 04/M04 A3013 RMK AO2 SLP212 T00391041 FZRANO $
MVFR 21:48:00 19-01-18
Automated station, no observer
Altimeter:30.12 hg
Temp:4.0°c 39°f
Dew point:-4.0°c 25°f
Wind:5 knots, 5.8 mph, 3 m/s, from 20°
Visibility:10.0 statute miles
2900(OVC) Overcast
RJTY 192148Z AUTO 02005KT 10SM OVC029 04/M04 A3012 RMK AO2 SLP209 FZRANO $
TAF
TAF RJTY 192100Z 1921/2103 01009KT 9999 BKN030 600304 QNH3000INS TEMPO 1923/2001 BKN015 600156 BECMG 2005/2006 11009KT 9999 SCT040 QNH3004INS BECMG 2010/2011 35009KT 9999 FEW050 QNH3000INS TX10/2002Z TN03/2021Z
Forecast at RJTY
21:00 19-01-18 to 05:00 20-01-18
Wind:9 Knots from 10°
Visibility:6.21 statute miles
3000BKN Broken
TEMPO 23:00 19-01-18 to 01:00 20-01-18
Wind:56 Knots from 1°
1500BKN Broken
BECMG 05:00 20-01-18 to 10:00 20-01-18
Wind:9 Knots from 110°
Visibility:6.21 statute miles
4000SCT Scattered
BECMG 10:00 20-01-18 to 03:00 21-01-18
Wind:9 Knots from 350°
Visibility:6.21 statute miles
5000FEW A few